Terminal Aerodrome Forecast
Issued by NWS Sterling, VA

Current Version | Previous Version | Graphics & Text | Print | Product List | Glossary On
Versions: 1 2 3 4 5 6 7 8 9 10 11 12 13 14 15 16 17 18 19 20 21
000
FTUS41 KLWX 221100
TAFIAD
TAF
KIAD 221138Z 2212/2318 17003KT P6SM SCT140 BKN200
     FM221600 23006KT P6SM -SHRA SCT035 OVC050
     FM221800 24010KT 6SM -SHRA OVC035
     FM222000 25008KT 6SM -SHRA VCTS SCT035CB OVC040
     FM222300 30012G21KT P6SM SCT030 BKN110
     FM230400 32011G20KT P6SM SCT250
     FM231000 30016G33KT P6SM BKN200=

USA.gov is the U.S. government's official web portal to all federal, state and local government web resources and services.